createdAt,value
2019-02-28T00:00:17.673Z,859.69
2019-02-28T00:01:17.662Z,859.68
2019-02-28T00:02:21.546Z,859.70
2019-02-28T00:03:17.662Z,859.66
2019-02-28T00:04:17.653Z,859.68
2019-02-28T00:05:17.655Z,859.71
2019-02-28T00:06:17.618Z,859.66
2019-02-28T00:07:18.085Z,859.69
2019-02-28T00:08:17.599Z,859.65
2019-02-28T00:09:17.602Z,859.64
2019-02-28T00:10:17.566Z,859.66
2019-02-28T00:11:17.594Z,859.59
2019-02-28T00:12:17.547Z,859.62
2019-02-28T00:13:21.396Z,859.62
2019-02-28T00:14:17.547Z,859.66
2019-02-28T00:15:17.516Z,859.65
2019-02-28T00:16:17.504Z,859.57
2019-02-28T00:17:17.558Z,859.60
2019-02-28T00:18:17.492Z,859.59
2019-02-28T00:19:17.469Z,859.57
2019-02-28T00:20:17.454Z,859.60
2019-02-28T00:21:17.448Z,859.52
2019-02-28T00:22:17.446Z,859.55
2019-02-28T00:23:19.258Z,859.56
2019-02-28T00:24:17.420Z,859.52
2019-02-28T00:25:17.408Z,859.53
2019-02-28T00:26:17.410Z,859.55
2019-02-28T00:27:21.018Z,859.54
2019-02-28T00:28:17.373Z,859.51
2019-02-28T00:29:17.424Z,859.54
2019-02-28T00:30:17.362Z,859.51
2019-02-28T00:31:17.374Z,859.52
2019-02-28T00:32:17.340Z,859.46
2019-02-28T00:33:17.324Z,859.48
2019-02-28T00:34:17.324Z,859.48
2019-02-28T00:35:17.351Z,859.51
2019-02-28T00:36:19.277Z,859.50
2019-02-28T00:37:17.295Z,859.46
2019-02-28T00:38:17.271Z,859.47
2019-02-28T00:39:17.269Z,859.50
2019-02-28T00:40:17.242Z,859.46
2019-02-28T00:41:17.235Z,859.47
2019-02-28T00:42:17.850Z,859.48
2019-02-28T00:43:17.235Z,859.45
2019-02-28T00:44:17.199Z,859.39
2019-02-28T00:45:17.205Z,859.44
2019-02-28T00:46:17.183Z,859.42
2019-02-28T00:47:17.203Z,859.36
2019-02-28T00:48:18.213Z,859.37
2019-02-28T00:49:17.166Z,859.35
2019-02-28T00:50:17.132Z,859.32
2019-02-28T00:51:17.145Z,859.37
2019-02-28T00:52:17.114Z,859.33
2019-02-28T00:53:17.107Z,859.33
2019-02-28T00:54:17.139Z,859.29
2019-02-28T00:55:17.087Z,859.33
2019-02-28T00:56:17.807Z,859.32
2019-02-28T00:57:17.054Z,859.30
2019-02-28T00:58:17.055Z,859.29
2019-02-28T00:59:17.047Z,859.27
2019-02-28T01:00:17.069Z,859.30
2019-02-28T01:01:17.017Z,859.24
2019-02-28T01:02:18.524Z,859.28
2019-02-28T01:03:16.998Z,859.25
2019-02-28T01:04:16.985Z,859.26
2019-02-28T01:05:16.982Z,859.25
2019-02-28T01:06:17.005Z,859.23
2019-02-28T01:07:17.053Z,859.22
2019-02-28T01:08:34.489Z,859.21
2019-02-28T01:09:17.931Z,859.17
2019-02-28T01:10:16.919Z,859.17
2019-02-28T01:11:16.950Z,859.17
2019-02-28T01:12:19.356Z,859.14
2019-02-28T01:13:16.890Z,859.13
2019-02-28T01:14:16.883Z,859.11
2019-02-28T01:15:16.864Z,859.16
2019-02-28T01:16:19.374Z,859.14
2019-02-28T01:17:16.857Z,859.13
2019-02-28T01:18:16.876Z,859.09
2019-02-28T01:19:16.835Z,859.12
2019-02-28T01:20:16.860Z,859.12
2019-02-28T01:21:16.801Z,859.07
2019-02-28T01:22:16.793Z,859.08
2019-02-28T01:23:16.782Z,859.07
2019-02-28T01:24:16.821Z,859.10
2019-02-28T01:25:16.790Z,859.08
2019-02-28T01:26:16.752Z,859.06
2019-02-28T01:27:17.330Z,859.07
2019-02-28T01:28:16.728Z,859.08
2019-02-28T01:29:16.725Z,859.04
2019-02-28T01:30:16.753Z,859.01
2019-02-28T01:31:16.697Z,859.00
2019-02-28T01:32:16.696Z,858.99
2019-02-28T01:33:16.694Z,859.00
2019-02-28T01:34:16.658Z,858.95
2019-02-28T01:35:16.650Z,859.01
2019-02-28T01:36:16.682Z,858.96
2019-02-28T01:37:16.633Z,858.89
2019-02-28T01:38:16.617Z,858.86
2019-02-28T01:39:16.628Z,858.86
2019-02-28T01:40:16.596Z,858.87
2019-02-28T01:41:16.590Z,858.88
2019-02-28T01:42:19.940Z,858.91
2019-02-28T01:43:16.564Z,858.91
2019-02-28T01:44:16.552Z,858.90
2019-02-28T01:45:16.561Z,858.86
2019-02-28T01:46:17.195Z,858.82
2019-02-28T01:47:19.964Z,858.86
2019-02-28T01:48:16.557Z,858.84
2019-02-28T01:49:16.496Z,858.86
2019-02-28T01:50:16.509Z,858.84
2019-02-28T01:51:16.487Z,858.82
2019-02-28T01:52:16.481Z,858.77
2019-02-28T01:53:19.543Z,858.78
2019-02-28T01:54:16.491Z,858.78
2019-02-28T01:55:16.439Z,858.80
2019-02-28T01:56:16.442Z,858.74
2019-02-28T01:57:16.413Z,858.78
2019-02-28T01:58:17.396Z,858.73
2019-02-28T01:59:16.396Z,858.76
2019-02-28T02:00:16.428Z,858.72
2019-02-28T02:01:16.386Z,858.78
2019-02-28T02:02:16.355Z,858.74
2019-02-28T02:03:16.346Z,858.76
2019-02-28T02:04:16.351Z,858.71
2019-02-28T02:05:17.301Z,858.67
2019-02-28T02:06:16.376Z,858.69
2019-02-28T02:07:16.301Z,858.67
2019-02-28T02:08:16.298Z,858.69
2019-02-28T02:09:16.289Z,858.62
2019-02-28T02:10:17.674Z,858.61
2019-02-28T02:11:16.286Z,858.62
2019-02-28T02:12:16.308Z,858.65
2019-02-28T02:13:16.245Z,858.56
2019-02-28T02:14:16.232Z,858.55
2019-02-28T02:15:17.031Z,858.54
2019-02-28T02:16:16.206Z,858.50
2019-02-28T02:17:16.207Z,858.53
2019-02-28T02:18:16.250Z,858.54
2019-02-28T02:19:18.548Z,858.58
2019-02-28T02:20:16.167Z,858.52
2019-02-28T02:21:16.160Z,858.49
2019-02-28T02:22:16.143Z,858.48
2019-02-28T02:23:18.190Z,858.45
2019-02-28T02:24:16.190Z,858.49
2019-02-28T02:25:16.110Z,858.49
2019-02-28T02:26:16.103Z,858.49
2019-02-28T02:27:19.229Z,858.47
2019-02-28T02:28:16.081Z,858.48
2019-02-28T02:29:16.074Z,858.44
2019-02-28T02:30:16.356Z,858.52
2019-02-28T02:31:16.056Z,858.46
2019-02-28T02:32:16.060Z,858.46
2019-02-28T02:33:16.028Z,858.46
2019-02-28T02:34:16.020Z,858.34
2019-02-28T02:35:16.011Z,858.38
2019-02-28T02:36:17.390Z,858.28
2019-02-28T02:37:15.999Z,858.30
2019-02-28T02:38:15.980Z,858.27
2019-02-28T02:39:17.553Z,858.27
2019-02-28T02:40:15.970Z,858.27
2019-02-28T02:41:15.956Z,858.27
2019-02-28T02:42:16.002Z,858.28
2019-02-28T02:43:15.922Z,858.28
2019-02-28T02:44:15.937Z,858.26
2019-02-28T02:45:15.909Z,858.25
2019-02-28T02:46:20.227Z,858.22
2019-02-28T02:47:16.889Z,858.24
2019-02-28T02:48:15.910Z,858.26
2019-02-28T02:49:19.879Z,858.25
2019-02-28T02:50:15.853Z,858.19
2019-02-28T02:51:15.837Z,858.24
2019-02-28T02:52:15.840Z,858.17
2019-02-28T02:53:15.816Z,858.19
2019-02-28T02:54:19.582Z,858.15
2019-02-28T02:55:15.809Z,858.12
2019-02-28T02:56:15.805Z,858.15
2019-02-28T02:57:15.877Z,858.15
2019-02-28T02:58:15.757Z,858.17
2019-02-28T02:59:15.755Z,858.11
2019-02-28T03:00:15.819Z,858.11
2019-02-28T03:01:15.735Z,858.12
2019-02-28T03:02:15.735Z,858.10
2019-02-28T03:03:15.712Z,858.07
2019-02-28T03:04:21.370Z,858.04
2019-02-28T03:05:16.696Z,858.00
2019-02-28T03:06:15.718Z,858.03
2019-02-28T03:07:23.205Z,857.98
2019-02-28T03:08:16.670Z,857.97
2019-02-28T03:09:15.689Z,857.97
2019-02-28T03:10:17.329Z,857.91
2019-02-28T03:11:15.619Z,857.93
2019-02-28T03:12:15.608Z,857.92
2019-02-28T03:13:15.600Z,857.92
2019-02-28T03:14:17.309Z,857.92
2019-02-28T03:15:15.636Z,857.93
2019-02-28T03:16:15.568Z,857.96
2019-02-28T03:17:15.553Z,857.98
2019-02-28T03:18:20.581Z,857.95
2019-02-28T03:19:16.543Z,857.97
2019-02-28T03:20:15.547Z,857.97
2019-02-28T03:21:16.494Z,857.91
2019-02-28T03:22:15.523Z,857.94
2019-02-28T03:23:15.493Z,857.98
2019-02-28T03:24:16.417Z,857.97
2019-02-28T03:25:15.469Z,858.00
2019-02-28T03:26:15.481Z,857.99
2019-02-28T03:27:18.958Z,857.97
2019-02-28T03:28:15.442Z,858.01
2019-02-28T03:29:15.462Z,857.94
2019-02-28T03:30:26.488Z,857.96
2019-02-28T03:31:16.448Z,857.94
2019-02-28T03:32:15.418Z,858.00
2019-02-28T03:33:27.379Z,857.98
2019-02-28T03:34:16.414Z,857.96
2019-02-28T03:35:15.373Z,858.01
2019-02-28T03:36:16.734Z,857.97
2019-02-28T03:37:15.343Z,857.96
2019-02-28T03:38:15.349Z,857.95
2019-02-28T03:39:15.418Z,857.95
2019-02-28T03:40:15.303Z,858.03
2019-02-28T03:41:17.749Z,857.99
2019-02-28T03:42:15.295Z,857.96
2019-02-28T03:43:15.303Z,857.98
2019-02-28T03:44:19.793Z,857.97
2019-02-28T03:45:16.321Z,857.99
2019-02-28T03:46:15.310Z,857.99
2019-02-28T03:47:15.237Z,857.98
2019-02-28T03:48:15.225Z,857.98
2019-02-28T03:49:15.219Z,858.01
2019-02-28T03:50:15.215Z,858.02
2019-02-28T03:51:15.190Z,857.98
2019-02-28T03:52:15.254Z,858.04
2019-02-28T03:53:19.254Z,858.05
2019-02-28T03:54:16.176Z,858.07
2019-02-28T03:55:15.141Z,858.02
2019-02-28T03:56:16.060Z,857.98
2019-02-28T03:57:15.138Z,857.97
2019-02-28T03:58:15.190Z,858.00
2019-02-28T03:59:18.824Z,858.02
2019-02-28T04:00:16.112Z,858.00
2019-02-28T04:01:15.085Z,857.99
2019-02-28T04:02:20.828Z,858.02
2019-02-28T04:03:16.079Z,858.03
2019-02-28T04:04:15.093Z,858.02
2019-02-28T04:05:15.054Z,858.03
2019-02-28T04:06:15.040Z,858.05
2019-02-28T04:07:15.998Z,858.05
2019-02-28T04:08:15.005Z,858.03
2019-02-28T04:09:14.995Z,858.01
2019-02-28T04:10:16.783Z,857.97
2019-02-28T04:11:15.997Z,857.96
2019-02-28T04:12:14.970Z,858.05
2019-02-28T04:13:19.236Z,857.99
2019-02-28T04:14:15.957Z,857.99
2019-02-28T04:15:14.932Z,857.98
2019-02-28T04:16:14.981Z,857.98
2019-02-28T04:17:14.930Z,857.96
2019-02-28T04:18:14.901Z,858.00
2019-02-28T04:19:21.354Z,857.98
2019-02-28T04:20:15.905Z,857.99
2019-02-28T04:21:14.904Z,857.95
2019-02-28T04:22:14.871Z,857.97
2019-02-28T04:23:14.858Z,857.97
2019-02-28T04:24:14.858Z,857.97
2019-02-28T04:25:14.830Z,857.94
2019-02-28T04:26:14.834Z,857.93
2019-02-28T04:27:14.839Z,857.97
2019-02-28T04:28:18.595Z,857.97
2019-02-28T04:29:14.824Z,857.92
2019-02-28T04:30:14.765Z,857.90
2019-02-28T04:31:18.863Z,857.94
2019-02-28T04:32:15.794Z,857.91
2019-02-28T04:33:14.741Z,857.91
2019-02-28T04:34:14.723Z,857.93
2019-02-28T04:35:14.731Z,857.90
2019-02-28T04:36:14.705Z,857.89
2019-02-28T04:37:14.719Z,857.85
2019-02-28T04:38:14.729Z,857.88
2019-02-28T04:39:14.679Z,857.90
2019-02-28T04:40:14.672Z,857.80
2019-02-28T04:41:14.690Z,857.85
2019-02-28T04:42:14.643Z,857.82
2019-02-28T04:43:14.653Z,857.86
2019-02-28T04:44:15.369Z,857.86
2019-02-28T04:45:14.610Z,857.83
2019-02-28T04:46:14.652Z,857.84
2019-02-28T04:47:14.597Z,857.82
2019-02-28T04:48:14.743Z,857.82
2019-02-28T04:49:14.583Z,857.82
2019-02-28T04:50:14.579Z,857.86
2019-02-28T04:51:14.542Z,857.85
2019-02-28T04:52:14.560Z,857.91
2019-02-28T04:53:14.539Z,857.84
2019-02-28T04:54:14.566Z,857.87
2019-02-28T04:55:14.504Z,857.87
2019-02-28T04:56:14.536Z,857.85
2019-02-28T04:57:17.366Z,857.86
2019-02-28T04:58:15.476Z,857.86
2019-02-28T04:59:14.473Z,857.90
2019-02-28T05:00:14.459Z,857.89
2019-02-28T05:01:14.442Z,857.87
2019-02-28T05:02:19.726Z,857.94
2019-02-28T05:03:15.413Z,857.90
2019-02-28T05:04:14.430Z,857.89
2019-02-28T05:05:14.394Z,857.86
2019-02-28T05:06:14.383Z,857.89
2019-02-28T05:07:14.376Z,857.84
2019-02-28T05:08:40.197Z,857.87
2019-02-28T05:09:15.350Z,857.87
2019-02-28T05:10:14.362Z,857.87
2019-02-28T05:11:14.336Z,857.87
2019-02-28T05:12:14.328Z,857.91
2019-02-28T05:13:15.000Z,857.83
2019-02-28T05:14:14.352Z,857.90
2019-02-28T05:15:14.285Z,857.85
2019-02-28T05:16:14.275Z,857.84
2019-02-28T05:17:14.281Z,857.83
2019-02-28T05:18:14.255Z,857.81
2019-02-28T05:19:14.258Z,857.87
2019-02-28T05:20:14.313Z,857.87
2019-02-28T05:21:16.552Z,857.86
2019-02-28T05:22:15.222Z,857.87
2019-02-28T05:23:14.202Z,857.88
2019-02-28T05:24:14.187Z,857.87
2019-02-28T05:25:17.371Z,857.84
2019-02-28T05:26:14.217Z,857.86
2019-02-28T05:27:14.183Z,857.84
2019-02-28T05:28:14.161Z,857.87
2019-02-28T05:29:14.141Z,857.83
2019-02-28T05:30:17.974Z,857.83
2019-02-28T05:31:15.130Z,857.82
2019-02-28T05:32:14.144Z,857.83
2019-02-28T05:33:14.114Z,857.83
2019-02-28T05:34:15.966Z,857.79
2019-02-28T05:35:14.075Z,857.78
2019-02-28T05:36:14.075Z,857.79
2019-02-28T05:37:14.094Z,857.77
2019-02-28T05:38:14.095Z,857.76
2019-02-28T05:39:14.028Z,857.80
2019-02-28T05:40:14.061Z,857.79
2019-02-28T05:41:15.369Z,857.81
2019-02-28T05:42:14.001Z,857.80
2019-02-28T05:43:13.992Z,857.78
2019-02-28T05:44:14.022Z,857.79
2019-02-28T05:45:14.552Z,857.77
2019-02-28T05:46:13.957Z,857.83
2019-02-28T05:47:13.947Z,857.76
2019-02-28T05:48:13.961Z,857.79
2019-02-28T05:49:13.928Z,857.80
2019-02-28T05:50:16.748Z,857.78
2019-02-28T05:51:13.908Z,857.77
2019-02-28T05:52:13.947Z,857.83
2019-02-28T05:53:13.907Z,857.81
2019-02-28T05:54:16.984Z,857.81
2019-02-28T05:55:13.886Z,857.77
2019-02-28T05:56:13.851Z,857.75
2019-02-28T05:57:13.845Z,857.75
2019-02-28T05:58:17.485Z,857.72
2019-02-28T05:59:13.823Z,857.76
2019-02-28T06:00:13.811Z,857.70
2019-02-28T06:01:13.815Z,857.75
2019-02-28T06:02:13.785Z,857.74
2019-02-28T06:03:13.818Z,857.73
2019-02-28T06:04:13.760Z,857.68
2019-02-28T06:05:13.762Z,857.73
2019-02-28T06:06:13.748Z,857.73
2019-02-28T06:07:13.750Z,857.74
2019-02-28T06:08:13.728Z,857.74
2019-02-28T06:09:14.812Z,857.78
2019-02-28T06:10:13.697Z,857.77
2019-02-28T06:11:15.299Z,857.71
2019-02-28T06:12:13.684Z,857.76
2019-02-28T06:13:15.392Z,857.76
2019-02-28T06:14:13.676Z,857.79
2019-02-28T06:15:13.682Z,857.78
2019-02-28T06:16:13.635Z,857.77
2019-02-28T06:17:13.625Z,857.79
2019-02-28T06:18:13.611Z,857.77
2019-02-28T06:19:13.605Z,857.76
2019-02-28T06:20:16.313Z,857.76
2019-02-28T06:21:13.626Z,857.79
2019-02-28T06:22:13.574Z,857.78
2019-02-28T06:23:13.560Z,857.78
2019-02-28T06:24:13.652Z,857.71
2019-02-28T06:25:22.456Z,857.76
2019-02-28T06:26:14.584Z,857.75
2019-02-28T06:27:13.520Z,857.78
2019-02-28T06:28:13.553Z,857.79
2019-02-28T06:29:13.494Z,857.77
2019-02-28T06:30:13.488Z,857.83
2019-02-28T06:31:14.280Z,857.79
2019-02-28T06:32:13.781Z,857.87
2019-02-28T06:33:13.476Z,857.87
2019-02-28T06:34:13.494Z,857.91
2019-02-28T06:35:16.580Z,857.88
2019-02-28T06:36:14.418Z,857.87
2019-02-28T06:37:13.409Z,857.86
2019-02-28T06:38:16.221Z,857.86
2019-02-28T06:39:14.399Z,857.95
2019-02-28T06:40:13.421Z,857.93
2019-02-28T06:41:13.372Z,857.94
2019-02-28T06:42:13.359Z,858.01
2019-02-28T06:43:14.201Z,858.02
2019-02-28T06:44:13.350Z,857.98
2019-02-28T06:45:13.328Z,857.96
2019-02-28T06:46:13.362Z,857.91
2019-02-28T06:47:14.241Z,857.89
2019-02-28T06:48:13.288Z,857.86
2019-02-28T06:49:13.284Z,857.87
2019-02-28T06:50:13.850Z,857.84
2019-02-28T06:51:13.287Z,857.92
2019-02-28T06:52:13.302Z,857.90
2019-02-28T06:53:13.238Z,857.91
2019-02-28T06:54:13.222Z,857.93
2019-02-28T06:55:13.388Z,857.91
2019-02-28T06:56:13.243Z,857.90
2019-02-28T06:57:13.193Z,857.95
2019-02-28T06:58:13.207Z,857.94
2019-02-28T06:59:13.174Z,857.96
2019-02-28T07:00:14.128Z,857.93
2019-02-28T07:01:13.152Z,857.97
2019-02-28T07:02:13.190Z,857.94
2019-02-28T07:03:13.131Z,857.96
2019-02-28T07:04:14.477Z,857.97
2019-02-28T07:05:13.115Z,857.96
2019-02-28T07:06:13.098Z,857.97
2019-02-28T07:07:13.715Z,857.98
2019-02-28T07:08:13.113Z,857.95
2019-02-28T07:09:13.085Z,857.95
2019-02-28T07:10:13.401Z,857.94
2019-02-28T07:11:13.117Z,857.93
2019-02-28T07:12:13.326Z,857.95
2019-02-28T07:13:13.089Z,857.94
2019-02-28T07:14:13.908Z,857.93
2019-02-28T07:15:13.004Z,857.95
2019-02-28T07:16:12.985Z,857.92
2019-02-28T07:17:12.980Z,857.90
2019-02-28T07:18:12.967Z,857.92
2019-02-28T07:19:13.023Z,857.87
2019-02-28T07:20:12.945Z,857.85
2019-02-28T07:21:12.936Z,857.85
2019-02-28T07:22:19.233Z,857.86
2019-02-28T07:23:13.922Z,857.86
2019-02-28T07:24:12.900Z,857.88
2019-02-28T07:25:13.862Z,857.87
2019-02-28T07:26:12.876Z,857.85
2019-02-28T07:27:12.874Z,857.85
2019-02-28T07:28:12.871Z,857.85
2019-02-28T07:29:12.849Z,857.90
2019-02-28T07:30:17.486Z,857.81
2019-02-28T07:31:13.876Z,857.89
2019-02-28T07:32:12.827Z,857.92
2019-02-28T07:33:12.805Z,857.89
2019-02-28T07:34:12.793Z,857.92
2019-02-28T07:35:12.785Z,857.97
2019-02-28T07:36:12.815Z,857.92
2019-02-28T07:37:12.773Z,857.94
2019-02-28T07:38:12.750Z,857.91
2019-02-28T07:39:12.750Z,857.94
2019-02-28T07:40:16.420Z,857.92
2019-02-28T07:41:12.761Z,857.98
2019-02-28T07:42:12.706Z,857.95
2019-02-28T07:43:13.279Z,857.98
2019-02-28T07:44:12.682Z,858.02
2019-02-28T07:45:12.772Z,858.00
2019-02-28T07:46:12.666Z,858.03
2019-02-28T07:47:17.181Z,858.08
2019-02-28T07:48:12.651Z,858.09
2019-02-28T07:49:12.630Z,858.01
2019-02-28T07:50:12.661Z,858.01
2019-02-28T07:51:12.633Z,857.98
2019-02-28T07:52:12.628Z,857.92
2019-02-28T07:53:12.632Z,857.91
2019-02-28T07:54:15.812Z,858.01
2019-02-28T07:55:12.573Z,858.01
2019-02-28T07:56:12.619Z,858.01
2019-02-28T07:57:17.015Z,857.99
2019-02-28T07:58:13.581Z,858.04
2019-02-28T07:59:12.535Z,858.10
2019-02-28T08:00:17.097Z,858.13
2019-02-28T08:01:13.563Z,858.10
2019-02-28T08:02:12.597Z,858.12
2019-02-28T08:03:12.492Z,858.11
2019-02-28T08:04:12.491Z,858.15
2019-02-28T08:05:12.479Z,858.14
2019-02-28T08:06:12.507Z,858.16
2019-02-28T08:07:14.704Z,858.07
2019-02-28T08:08:12.450Z,858.08
2019-02-28T08:09:12.416Z,858.05
2019-02-28T08:10:12.722Z,857.98
2019-02-28T08:11:12.408Z,858.04
2019-02-28T08:12:12.460Z,857.98
2019-02-28T08:13:12.383Z,858.06
2019-02-28T08:14:12.989Z,858.02
2019-02-28T08:15:13.673Z,857.98
2019-02-28T08:16:12.347Z,857.95
2019-02-28T08:17:12.373Z,857.98
2019-02-28T08:18:12.316Z,858.03
2019-02-28T08:19:12.316Z,858.00
2019-02-28T08:20:12.326Z,857.99
2019-02-28T08:21:12.293Z,858.04
2019-02-28T08:22:12.288Z,858.01
2019-02-28T08:23:12.777Z,858.00
2019-02-28T08:24:12.286Z,857.99
2019-02-28T08:25:12.250Z,858.03
2019-02-28T08:26:12.242Z,857.99
2019-02-28T08:27:12.240Z,858.05
2019-02-28T08:28:12.237Z,858.01
2019-02-28T08:29:12.275Z,858.01
2019-02-28T08:30:12.190Z,858.05
2019-02-28T08:31:12.181Z,858.07
2019-02-28T08:32:12.182Z,858.07
2019-02-28T08:33:12.195Z,858.03
2019-02-28T08:34:12.162Z,858.03
2019-02-28T08:35:12.201Z,858.03
2019-02-28T08:36:12.768Z,858.05
2019-02-28T08:37:12.123Z,858.11
2019-02-28T08:38:12.096Z,858.09
2019-02-28T08:39:12.116Z,858.09
2019-02-28T08:40:12.629Z,858.08
2019-02-28T08:41:12.138Z,858.07
2019-02-28T08:42:12.067Z,858.05
2019-02-28T08:43:13.461Z,858.07
2019-02-28T08:44:12.034Z,858.04
2019-02-28T08:45:12.070Z,858.07
2019-02-28T08:46:13.728Z,858.03
2019-02-28T08:47:12.046Z,858.06
2019-02-28T08:48:12.776Z,858.05
2019-02-28T08:49:11.978Z,858.04
2019-02-28T08:50:11.995Z,858.00
2019-02-28T08:51:11.955Z,858.00
2019-02-28T08:52:11.950Z,857.98
2019-02-28T08:53:12.373Z,857.91
2019-02-28T08:54:11.929Z,857.89
2019-02-28T08:55:11.922Z,857.86
2019-02-28T08:56:14.100Z,857.87
2019-02-28T08:57:13.005Z,857.84
2019-02-28T08:58:11.888Z,857.81
2019-02-28T08:59:12.217Z,857.82
2019-02-28T09:00:11.879Z,857.78
2019-02-28T09:01:11.891Z,857.70
2019-02-28T09:02:14.504Z,857.76
2019-02-28T09:03:12.848Z,857.71
2019-02-28T09:04:11.813Z,857.71
2019-02-28T09:05:11.803Z,857.69
2019-02-28T09:06:11.812Z,857.65
2019-02-28T09:07:14.830Z,857.65
2019-02-28T09:08:11.773Z,857.65
2019-02-28T09:09:11.768Z,857.69
2019-02-28T09:10:12.720Z,857.68
2019-02-28T09:11:11.756Z,857.72
2019-02-28T09:12:11.731Z,857.71
2019-02-28T09:13:11.739Z,857.73
2019-02-28T09:14:11.707Z,857.75
2019-02-28T09:15:11.700Z,857.74
2019-02-28T09:16:11.720Z,857.73
2019-02-28T09:17:11.692Z,857.71
2019-02-28T09:18:11.669Z,857.68
2019-02-28T09:19:11.652Z,857.71
2019-02-28T09:20:11.685Z,857.63
2019-02-28T09:21:11.627Z,857.61
2019-02-28T09:22:11.617Z,857.62
2019-02-28T09:23:11.663Z,857.64
2019-02-28T09:24:12.648Z,857.67
2019-02-28T09:25:11.590Z,857.67
2019-02-28T09:26:11.621Z,857.63
2019-02-28T09:27:12.287Z,857.63
2019-02-28T09:28:13.032Z,857.65
2019-02-28T09:29:11.547Z,857.68
2019-02-28T09:30:11.580Z,857.66
2019-02-28T09:31:11.521Z,857.67
2019-02-28T09:32:13.584Z,857.64
2019-02-28T09:33:11.554Z,857.69
2019-02-28T09:34:11.490Z,857.69
2019-02-28T09:35:14.432Z,857.66
2019-02-28T09:36:11.494Z,857.68
2019-02-28T09:37:11.459Z,857.67
2019-02-28T09:38:13.570Z,857.63
2019-02-28T09:39:11.478Z,857.60
2019-02-28T09:40:11.458Z,857.53
2019-02-28T09:41:11.417Z,857.60
2019-02-28T09:42:14.850Z,857.59
2019-02-28T09:43:11.398Z,857.58
2019-02-28T09:44:11.432Z,857.58
2019-02-28T09:45:11.366Z,857.56
2019-02-28T09:46:12.505Z,857.58
2019-02-28T09:47:11.820Z,857.57
2019-02-28T09:48:11.336Z,857.53
2019-02-28T09:49:12.947Z,857.47
2019-02-28T09:50:11.327Z,857.51
2019-02-28T09:51:11.321Z,857.47
2019-02-28T09:52:11.327Z,857.50
2019-02-28T09:53:15.484Z,857.47
2019-02-28T09:54:12.300Z,857.47
2019-02-28T09:55:11.321Z,857.48
2019-02-28T09:56:11.293Z,857.51
2019-02-28T09:57:11.237Z,857.52
2019-02-28T09:58:11.243Z,857.53
2019-02-28T09:59:11.266Z,857.54
2019-02-28T10:00:12.012Z,857.55
2019-02-28T10:01:11.267Z,857.48
2019-02-28T10:02:11.188Z,857.52
2019-02-28T10:03:11.181Z,857.50
2019-02-28T10:04:11.209Z,857.49
2019-02-28T10:05:11.860Z,857.51
2019-02-28T10:06:13.449Z,857.47
2019-02-28T10:07:12.135Z,857.53
2019-02-28T10:08:11.163Z,857.59
2019-02-28T10:09:11.123Z,857.62
2019-02-28T10:10:11.218Z,857.54
2019-02-28T10:11:11.106Z,857.61
2019-02-28T10:12:11.130Z,857.56
2019-02-28T10:13:11.107Z,857.56
2019-02-28T10:14:12.211Z,857.49
2019-02-28T10:15:11.065Z,857.58
2019-02-28T10:16:13.578Z,857.61
2019-02-28T10:17:12.023Z,857.62
2019-02-28T10:18:11.025Z,857.57
2019-02-28T10:19:13.468Z,857.55
2019-02-28T10:20:10.990Z,857.57
2019-02-28T10:21:10.992Z,857.52
2019-02-28T10:22:12.913Z,857.50
2019-02-28T10:23:10.962Z,857.48
2019-02-28T10:24:10.972Z,857.47
2019-02-28T10:25:11.003Z,857.48
2019-02-28T10:26:10.973Z,857.48
2019-02-28T10:27:10.913Z,857.46
2019-02-28T10:28:10.905Z,857.47
2019-02-28T10:29:10.900Z,857.46
2019-02-28T10:30:15.639Z,857.45
2019-02-28T10:31:11.880Z,857.42
2019-02-28T10:32:10.918Z,857.47
2019-02-28T10:33:10.855Z,857.46
2019-02-28T10:34:10.848Z,857.46
2019-02-28T10:35:10.842Z,857.45
2019-02-28T10:36:12.911Z,857.46
2019-02-28T10:37:10.824Z,857.45
2019-02-28T10:38:10.844Z,857.44
2019-02-28T10:39:10.789Z,857.40
2019-02-28T10:40:10.772Z,857.45
2019-02-28T10:41:10.768Z,857.43
2019-02-28T10:42:10.752Z,857.45
2019-02-28T10:43:12.110Z,857.43
2019-02-28T10:44:10.800Z,857.40
2019-02-28T10:45:10.733Z,857.42
2019-02-28T10:46:13.334Z,857.42
2019-02-28T10:47:11.717Z,857.39
2019-02-28T10:48:10.690Z,857.41
2019-02-28T10:49:10.677Z,857.46
2019-02-28T10:50:10.739Z,857.48
2019-02-28T10:51:14.037Z,857.44
2019-02-28T10:52:10.643Z,857.47
2019-02-28T10:53:10.655Z,857.49
2019-02-28T10:54:11.219Z,857.51
2019-02-28T10:55:10.622Z,857.51
2019-02-28T10:56:10.644Z,857.48
2019-02-28T10:57:10.605Z,857.50
2019-02-28T10:58:12.529Z,857.52
2019-02-28T10:59:10.569Z,857.53
2019-02-28T11:00:10.593Z,857.49
2019-02-28T11:01:10.555Z,857.51
2019-02-28T11:02:13.951Z,857.52
2019-02-28T11:03:11.525Z,857.49
2019-02-28T11:04:10.515Z,857.53
2019-02-28T11:05:10.523Z,857.51
2019-02-28T11:06:10.500Z,857.43
2019-02-28T11:07:10.483Z,857.43
2019-02-28T11:08:12.984Z,857.44
2019-02-28T11:09:10.463Z,857.39
2019-02-28T11:10:10.466Z,857.37
2019-02-28T11:11:11.228Z,857.47
2019-02-28T11:12:10.434Z,857.43
2019-02-28T11:13:10.441Z,857.36
2019-02-28T11:14:10.456Z,857.38
2019-02-28T11:15:13.914Z,857.41
2019-02-28T11:16:11.138Z,857.42
2019-02-28T11:17:13.695Z,857.44
2019-02-28T11:18:10.381Z,857.39
2019-02-28T11:19:10.357Z,857.37
2019-02-28T11:20:21.605Z,857.36
2019-02-28T11:21:11.372Z,857.37
2019-02-28T11:22:10.345Z,857.39
2019-02-28T11:23:14.333Z,857.42
2019-02-28T11:24:10.316Z,857.37
2019-02-28T11:25:10.322Z,857.40
2019-02-28T11:26:10.466Z,857.44
2019-02-28T11:27:10.277Z,857.44
2019-02-28T11:28:10.262Z,857.38
2019-02-28T11:29:10.260Z,857.46
2019-02-28T11:30:10.845Z,857.48
2019-02-28T11:31:11.211Z,857.49
2019-02-28T11:32:10.321Z,857.49
2019-02-28T11:33:10.222Z,857.51
2019-02-28T11:34:11.515Z,857.52
2019-02-28T11:35:10.220Z,857.51
2019-02-28T11:36:10.183Z,857.49
2019-02-28T11:37:10.174Z,857.49
2019-02-28T11:38:10.192Z,857.47
2019-02-28T11:39:10.159Z,857.36
2019-02-28T11:40:10.564Z,857.38
2019-02-28T11:41:10.127Z,857.30
2019-02-28T11:42:10.108Z,857.30
2019-02-28T11:43:10.127Z,857.35
2019-02-28T11:44:12.016Z,857.39
2019-02-28T11:45:10.082Z,857.45
2019-02-28T11:46:10.099Z,857.38
2019-02-28T11:47:11.221Z,857.40
2019-02-28T11:48:10.041Z,857.26
2019-02-28T11:49:10.053Z,857.34
2019-02-28T11:50:10.093Z,857.33
2019-02-28T11:51:10.012Z,857.32
2019-02-28T11:52:09.999Z,857.29
2019-02-28T11:53:10.032Z,857.29
2019-02-28T11:54:12.228Z,857.27
2019-02-28T11:55:09.973Z,857.28
2019-02-28T11:56:10.007Z,857.27
2019-02-28T11:57:09.947Z,857.29
2019-02-28T11:58:09.938Z,857.23
2019-02-28T11:59:09.944Z,857.27
2019-02-28T12:00:09.920Z,857.21
2019-02-28T12:01:10.504Z,857.19
2019-02-28T12:02:09.954Z,857.23
2019-02-28T12:03:09.892Z,857.23
2019-02-28T12:04:09.880Z,857.16
2019-02-28T12:05:12.325Z,857.18
2019-02-28T12:06:10.853Z,857.20
2019-02-28T12:07:10.635Z,857.12
2019-02-28T12:08:10.712Z,857.11
2019-02-28T12:09:09.834Z,857.00
2019-02-28T12:10:09.813Z,857.00
2019-02-28T12:11:09.809Z,856.99
2019-02-28T12:12:10.420Z,856.95
2019-02-28T12:13:09.795Z,856.98
2019-02-28T12:14:09.821Z,857.00
2019-02-28T12:15:09.764Z,856.96
2019-02-28T12:16:09.996Z,856.92
2019-02-28T12:17:09.727Z,856.84
2019-02-28T12:18:09.721Z,856.90
2019-02-28T12:19:12.578Z,856.88
2019-02-28T12:20:10.764Z,856.84
2019-02-28T12:21:09.693Z,856.84
2019-02-28T12:22:12.079Z,856.83
2019-02-28T12:23:09.682Z,856.82
2019-02-28T12:24:09.667Z,856.82
2019-02-28T12:25:09.648Z,856.86
2019-02-28T12:26:09.672Z,856.86
2019-02-28T12:27:09.643Z,856.87
2019-02-28T12:28:09.625Z,856.87